Time;durP1;ratioP1;P1;durP2;ratioP2;P2;SDS_P1;SDS_P2;PMS_P1;PMS_P2;Temp;Humidity;BMP_temperature;BMP_pressure;BME280_temperature;BME280_humidity;BME280_pressure;Samples;Min_cycle;Max_cycle;Signal;HPM_P1;HPM_P2
2021/09/09 00:01:54;;;;;;;4.18;3.28;;;;;;;16.64;89.71;101419.69;6261637;28;20520;-75
2021/09/09 00:05:00;;;;;;;6.00;3.47;;;;;;;16.65;89.38;101415.84;6262143;28;20354;-74
2021/09/09 00:08:14;;;;;;;4.68;3.60;;;;;;;16.56;90.20;101414.56;6261671;28;20376;-75
2021/09/09 00:11:22;;;;;;;5.32;3.05;;;;;;;16.53;90.32;101404.03;6262765;28;20189;-75
2021/09/09 00:14:28;;;;;;;4.63;2.92;;;;;;;16.56;89.86;101398.03;6262019;28;20239;-75
2021/09/09 00:17:34;;;;;;;3.17;3.05;;;;;;;16.44;90.63;101403.50;6261506;28;20410;-75
2021/09/09 00:20:42;;;;;;;3.45;3.35;;;;;;;16.45;90.62;101401.59;6261738;28;20271;-75
2021/09/09 00:23:48;;;;;;;3.22;3.03;;;;;;;16.50;90.42;101405.31;6262487;28;20195;-74
2021/09/09 00:26:52;;;;;;;8.13;3.67;;;;;;;16.51;89.78;101401.47;6262247;28;20185;-74
2021/09/09 00:30:00;;;;;;;3.42;3.22;;;;;;;16.45;90.15;101401.59;6262290;28;20185;-74
2021/09/09 00:33:07;;;;;;;3.17;2.92;;;;;;;16.39;90.24;101394.28;6261341;28;20389;-75
2021/09/09 00:36:12;;;;;;;3.50;3.20;;;;;;;16.42;90.10;101415.84;6262606;28;20248;-74
2021/09/09 00:39:17;;;;;;;2.92;2.83;;;;;;;16.35;90.21;101409.63;6262306;28;20184;-75
2021/09/09 00:42:21;;;;;;;3.60;3.30;;;;;;;16.24;90.83;101406.66;6262187;28;20259;-74
2021/09/09 00:45:26;;;;;;;3.47;3.22;;;;;;;16.24;90.91;101401.16;6262174;28;20232;-74
2021/09/09 00:48:34;;;;;;;7.38;3.67;;;;;;;16.18;90.79;101407.59;6261887;28;20185;-74
2021/09/09 00:51:41;;;;;;;3.30;2.97;;;;;;;16.20;90.65;101394.44;6262476;28;20195;-74
2021/09/09 00:54:47;;;;;;;3.40;3.30;;;;;;;16.20;90.96;101399.13;6261081;28;20376;-74
2021/09/09 00:57:55;;;;;;;9.82;3.53;;;;;;;16.23;90.87;101404.97;6261787;28;20185;-74
2021/09/09 01:01:01;;;;;;;4.10;3.28;;;;;;;16.18;90.78;101396.59;6260924;28;20220;-74
2021/09/09 01:04:05;;;;;;;5.20;3.40;;;;;;;16.08;91.19;101399.13;6262207;28;20252;-74
2021/09/09 01:07:11;;;;;;;3.20;3.10;;;;;;;16.12;91.11;101397.59;6262255;28;20291;-73
2021/09/09 01:10:15;;;;;;;3.50;3.30;;;;;;;16.04;91.62;101406.19;6262016;28;20248;-73
2021/09/09 01:13:20;;;;;;;3.67;3.47;;;;;;;16.02;91.62;101391.00;6261881;28;20223;-74
2021/09/09 01:16:27;;;;;;;3.22;3.00;;;;;;;16.07;91.38;101397.47;6262083;28;20208;-74
2021/09/09 01:19:32;;;;;;;3.85;3.63;;;;;;;16.10;90.99;101405.22;6261625;28;20253;-74
2021/09/09 01:22:36;;;;;;;4.80;3.20;;;;;;;16.09;90.97;101400.81;6264728;28;20212;-74
2021/09/09 01:25:42;;;;;;;3.67;3.38;;;;;;;16.05;91.12;101401.53;6265250;28;20502;-74
2021/09/09 01:28:46;;;;;;;4.82;3.13;;;;;;;16.01;91.44;101395.66;6266481;28;20248;-74
2021/09/09 01:31:52;;;;;;;8.85;3.28;;;;;;;15.96;91.76;101392.78;6266283;28;20188;-74
2021/09/09 01:34:58;;;;;;;3.70;3.50;;;;;;;15.99;91.49;101397.81;6266277;28;20191;-74
2021/09/09 01:38:03;;;;;;;3.97;3.60;;;;;;;15.93;91.00;101382.25;6265056;28;20530;-74
2021/09/09 01:41:08;;;;;;;3.15;3.05;;;;;;;15.94;91.56;101394.94;6266337;28;20223;-74
2021/09/09 01:44:12;;;;;;;4.35;3.53;;;;;;;15.87;91.78;101393.38;6266083;28;20252;-74
2021/09/09 01:47:19;;;;;;;6.07;3.72;;;;;;;15.88;91.72;101390.38;6265310;28;20223;-75
2021/09/09 01:50:25;;;;;;;3.85;3.65;;;;;;;15.81;92.36;101389.66;6266120;28;20191;-74
2021/09/09 01:53:32;;;;;;;6.03;3.22;;;;;;;15.85;91.50;101390.84;6265698;28;20227;-75
2021/09/09 01:56:38;;;;;;;6.05;3.53;;;;;;;15.86;91.50;101381.53;6264978;28;20252;-75
2021/09/09 01:59:42;;;;;;;4.15;3.85;;;;;;;15.91;91.05;101378.91;6265063;28;20185;-74
2021/09/09 02:02:46;;;;;;;3.78;3.53;;;;;;;15.80;92.07;101382.47;6265641;28;20212;-74
2021/09/09 02:05:50;;;;;;;4.47;3.97;;;;;;;15.77;92.55;101390.38;6265702;28;20185;-74
2021/09/09 02:08:55;;;;;;;4.40;4.20;;;;;;;15.78;92.53;101379.13;6265348;28;20192;-74
2021/09/09 02:12:00;;;;;;;4.85;4.40;;;;;;;15.73;92.43;101381.75;6264189;28;20409;-75
2021/09/09 02:15:06;;;;;;;6.95;4.22;;;;;;;15.72;92.81;101380.06;6265073;28;20237;-75
2021/09/09 02:18:14;;;;;;;6.78;3.75;;;;;;;15.69;92.74;101375.03;6265031;28;20189;-75
2021/09/09 02:21:18;;;;;;;9.57;4.13;;;;;;;15.69;92.45;101369.53;6264986;28;20216;-74
2021/09/09 02:24:25;;;;;;;5.10;4.13;;;;;;;15.85;91.59;101368.84;6264983;28;20189;-74
2021/09/09 02:27:31;;;;;;;3.97;3.78;;;;;;;15.75;92.39;101373.25;6265126;28;20224;-75
2021/09/09 02:30:35;;;;;;;6.18;3.97;;;;;;;15.69;92.69;101371.47;6264584;28;20249;-74
2021/09/09 02:33:40;;;;;;;3.97;3.78;;;;;;;15.64;92.46;101374.91;6265016;28;20185;-74
2021/09/09 02:36:44;;;;;;;4.00;3.78;;;;;;;15.68;92.71;101367.88;6263650;28;20208;-74
2021/09/09 02:39:49;;;;;;;6.57;4.25;;;;;;;15.48;94.12;101378.38;6263651;28;20408;-74
2021/09/09 02:42:54;;;;;;;4.38;4.00;;;;;;;15.55;93.79;101381.84;6263799;28;20208;-74
2021/09/09 02:45:59;;;;;;;4.72;4.10;;;;;;;15.53;93.68;101373.00;6264413;28;20248;-74
2021/09/09 02:49:04;;;;;;;4.25;3.88;;;;;;;15.66;93.17;101368.09;6263249;28;20375;-74
2021/09/09 02:52:11;;;;;;;4.65;4.20;;;;;;;15.66;93.01;101368.09;6263995;28;20189;-74
2021/09/09 02:55:15;;;;;;;4.50;4.28;;;;;;;15.57;93.65;101368.69;6263609;28;20185;-74
2021/09/09 02:58:21;;;;;;;5.18;4.70;;;;;;;15.58;94.12;101367.63;6262900;28;20196;-74
2021/09/09 03:01:25;;;;;;;4.53;4.22;;;;;;;15.52;94.11;101360.31;6263675;28;20191;-74
2021/09/09 03:04:32;;;;;;;5.10;4.65;;;;;;;15.47;94.48;101362.94;6262867;28;20404;-74
2021/09/09 03:07:36;;;;;;;6.47;4.40;;;;;;;15.46;94.54;101358.50;6264244;28;20250;-75
2021/09/09 03:10:41;;;;;;;5.10;4.30;;;;;;;15.56;94.07;101367.03;6263813;28;20185;-75
2021/09/09 03:13:46;;;;;;;5.32;4.50;;;;;;;15.48;94.55;101361.88;6263583;28;20236;-75
2021/09/09 03:16:52;;;;;;;5.35;4.47;;;;;;;15.46;94.24;101359.34;6263556;28;20255;-74
2021/09/09 03:19:56;;;;;;;5.88;4.57;;;;;;;15.46;94.36;101358.50;6262561;28;20543;-75
2021/09/09 03:23:01;;;;;;;5.30;4.80;;;;;;;15.46;94.50;101358.50;6263435;28;20240;-74
2021/09/09 03:26:06;;;;;;;4.95;4.65;;;;;;;15.47;94.23;101363.78;6263438;28;20191;-73
2021/09/09 03:29:13;;;;;;;8.40;4.82;;;;;;;15.41;94.75;101364.69;6263732;28;20189;-74
2021/09/09 03:32:17;;;;;;;5.25;4.88;;;;;;;15.40;95.35;101359.44;6262284;28;20540;-74
2021/09/09 03:35:21;;;;;;;5.70;4.47;;;;;;;15.37;94.57;101359.91;6262929;28;20311;-75
2021/09/09 03:38:26;;;;;;;7.57;5.35;;;;;;;15.34;95.98;101361.22;6263202;28;20185;-75
2021/09/09 03:41:31;;;;;;;7.10;5.32;;;;;;;15.40;95.16;101359.44;6262535;28;20260;-75
2021/09/09 03:44:36;;;;;;;4.75;4.45;;;;;;;15.45;94.74;101352.19;6261601;28;20631;-75
2021/09/09 03:47:41;;;;;;;5.55;5.03;;;;;;;15.38;95.75;101361.59;6263492;28;20192;-75
2021/09/09 03:50:45;;;;;;;6.88;5.03;;;;;;;15.26;96.71;101364.31;6262076;28;20185;-75
2021/09/09 03:53:49;;;;;;;6.22;5.38;;;;;;;15.28;96.84;101355.84;6262000;28;20389;-75
2021/09/09 03:56:53;;;;;;;8.85;5.40;;;;;;;15.29;97.21;101349.25;6261995;28;20407;-75
2021/09/09 03:59:59;;;;;;;10.25;5.07;;;;;;;15.27;97.43;101348.66;6262249;28;20220;-75
2021/09/09 04:03:03;;;;;;;5.82;5.32;;;;;;;15.30;97.08;101348.19;6261709;28;20574;-75
2021/09/09 04:06:10;;;;;;;8.02;5.40;;;;;;;15.29;97.59;101349.25;6261784;28;20472;-75
2021/09/09 04:09:14;;;;;;;10.55;5.97;;;;;;;15.27;98.05;101343.16;6262753;28;20188;-75
2021/09/09 04:12:19;;;;;;;10.43;5.93;;;;;;;15.24;98.21;101333.47;6261959;28;20193;-75
2021/09/09 04:15:24;;;;;;;10.60;6.18;;;;;;;15.16;99.85;101336.56;6262148;28;20303;-75
2021/09/09 04:18:29;;;;;;;6.07;5.57;;;;;;;15.30;97.80;101342.69;6261477;28;20492;-75
2021/09/09 04:21:33;;;;;;;6.32;5.32;;;;;;;15.27;98.65;101321.16;6261869;28;20192;-75
2021/09/09 04:24:40;;;;;;;6.70;6.00;;;;;;;15.24;99.00;101338.13;6261799;28;20287;-75
2021/09/09 04:27:44;;;;;;;7.00;5.15;;;;;;;15.27;98.25;101321.16;6262828;28;20268;-75
2021/09/09 04:30:51;;;;;;;6.07;5.57;;;;;;;15.15;99.51;101314.81;6262416;28;20185;-75
2021/09/09 04:33:55;;;;;;;7.80;5.68;;;;;;;15.22;99.28;101312.78;6261290;28;20280;-75
2021/09/09 04:36:59;;;;;;;13.27;5.53;;;;;;;15.24;99.03;101319.72;6262013;28;20254;-75
2021/09/09 04:40:05;;;;;;;5.53;5.10;;;;;;;15.32;98.63;101318.53;6261569;28;20192;-75
2021/09/09 04:43:10;;;;;;;6.78;4.95;;;;;;;15.35;97.92;101323.56;6262205;28;20258;-74
2021/09/09 04:46:15;;;;;;;7.28;4.88;;;;;;;15.34;98.42;101310.88;6261206;28;20449;-74
2021/09/09 04:49:19;;;;;;;6.35;5.15;;;;;;;15.41;98.39;101312.44;6262259;28;20208;-74
2021/09/09 04:52:24;;;;;;;6.45;5.43;;;;;;;15.33;98.80;101298.22;6261607;28;20259;-74
2021/09/09 04:55:29;;;;;;;8.27;5.65;;;;;;;15.33;98.93;101309.22;6261074;28;20378;-74
2021/09/09 04:58:33;;;;;;;8.45;6.43;;;;;;;15.36;98.97;101303.22;6265317;28;20383;-74
2021/09/09 05:01:41;;;;;;;6.32;5.70;;;;;;;15.39;98.78;101297.25;6267144;28;20239;-74
2021/09/09 05:04:46;;;;;;;8.93;6.00;;;;;;;15.41;98.94;101306.09;6265717;28;20473;-74
2021/09/09 05:07:52;;;;;;;7.00;5.38;;;;;;;15.42;98.31;101291.28;6265883;28;20192;-74
2021/09/09 05:10:56;;;;;;;6.70;5.38;;;;;;;15.46;98.23;101292.50;6266891;28;20251;-74
2021/09/09 05:14:01;;;;;;;8.32;6.15;;;;;;;15.54;98.02;101300.41;6265374;28;20405;-74
2021/09/09 05:17:07;;;;;;;6.43;5.70;;;;;;;15.48;98.80;101301.38;6265238;28;20262;-74
2021/09/09 05:20:13;;;;;;;6.45;5.78;;;;;;;15.44;99.25;101300.97;6265367;28;20383;-74
2021/09/09 05:23:31;;;;;;;8.95;6.28;;;;;;;15.52;98.59;101302.56;6266175;28;20213;-74
2021/09/09 05:26:35;;;;;;;7.00;6.13;;;;;;;15.59;98.93;101303.28;6266428;28;20185;-73
2021/09/09 05:29:39;;;;;;;7.13;6.30;;;;;;;15.68;98.61;101301.88;6266131;28;20184;-73
2021/09/09 05:32:45;;;;;;;7.03;6.32;;;;;;;15.74;97.82;101295.38;6266275;28;20185;-73
2021/09/09 05:35:49;;;;;;;6.03;5.45;;;;;;;15.80;97.45;101294.44;6265860;28;20227;-73
2021/09/09 05:38:54;;;;;;;8.05;6.25;;;;;;;15.85;97.54;101302.81;6266209;28;20248;-73
2021/09/09 05:41:59;;;;;;;9.30;6.32;;;;;;;15.86;96.67;101296.25;6266103;28;20235;-74
2021/09/09 05:45:04;;;;;;;9.52;6.47;;;;;;;15.86;97.51;101293.50;6265030;28;20212;-73
2021/09/09 05:48:14;;;;;;;11.43;6.38;;;;;;;15.93;97.15;101299.69;6265026;28;20454;-74
2021/09/09 05:51:18;;;;;;;7.45;6.70;;;;;;;15.99;96.81;101293.22;6264896;28;20192;-73
2021/09/09 05:54:22;;;;;;;7.28;6.57;;;;;;;15.92;97.56;101291.69;6265831;28;20189;-74
2021/09/09 05:57:26;;;;;;;7.22;6.53;;;;;;;16.12;96.21;101298.47;6265521;28;20192;-75
2021/09/09 06:00:31;;;;;;;7.00;6.28;;;;;;;16.14;96.62;101289.97;6264851;28;20197;-74
2021/09/09 06:03:37;;;;;;;11.23;6.00;;;;;;;16.25;95.52;101292.69;6264061;28;20192;-75
2021/09/09 06:06:42;;;;;;;7.72;6.18;;;;;;;16.33;95.65;101293.41;6265171;28;20217;-75
2021/09/09 06:09:47;;;;;;;8.25;6.65;;;;;;;16.34;96.84;101300.56;6265021;28;20192;-75
2021/09/09 06:12:51;;;;;;;6.70;6.20;;;;;;;16.26;95.94;101302.63;6264932;28;20223;-74
2021/09/09 06:15:55;;;;;;;7.15;6.55;;;;;;;16.27;95.69;101296.06;6264980;28;20313;-74
2021/09/09 06:19:18;;;;;;;9.00;6.25;;;;;;;16.23;95.23;101308.63;6264838;28;20185;-74
2021/09/09 06:22:22;;;;;;;8.98;6.78;;;;;;;16.32;94.92;101308.25;6263868;28;20507;-74
2021/09/09 06:25:26;;;;;;;11.63;6.53;;;;;;;16.40;94.62;101302.34;6263307;28;20255;-74
2021/09/09 06:28:31;;;;;;;9.55;6.75;;;;;;;16.40;95.01;101291.34;6263643;28;20185;-73
2021/09/09 06:31:35;;;;;;;6.72;6.03;;;;;;;16.45;95.40;101302.47;6265042;28;20185;-74
2021/09/09 06:34:41;;;;;;;7.25;6.55;;;;;;;16.56;93.47;101304.38;6264975;28;20216;-74
2021/09/09 06:37:47;;;;;;;10.98;7.40;;;;;;;16.58;94.42;101302.22;6264805;28;20216;-74
2021/09/09 06:40:52;;;;;;;8.63;7.32;;;;;;;16.48;94.21;101296.47;6263084;28;20523;-73
2021/09/09 06:43:57;;;;;;;9.13;8.00;;;;;;;16.63;93.52;101294.03;6264119;28;20186;-74
2021/09/09 06:47:02;;;;;;;8.00;7.05;;;;;;;16.66;93.49;101294.41;6263876;28;20185;-74
2021/09/09 06:50:23;;;;;;;9.05;7.00;;;;;;;16.69;93.07;101293.06;6264526;28;20192;-74
2021/09/09 06:53:32;;;;;;;9.25;7.05;;;;;;;16.72;94.22;101295.31;6263008;28;20481;-74
2021/09/09 06:56:38;;;;;;;11.45;7.97;;;;;;;16.82;93.24;101292.75;6264052;28;20189;-74
2021/09/09 06:59:43;;;;;;;8.68;7.68;;;;;;;16.70;93.38;101294.72;6263649;28;20255;-74
2021/09/09 07:02:50;;;;;;;8.02;7.22;;;;;;;16.74;94.55;101301.44;6264060;28;20248;-74
2021/09/09 07:06:08;;;;;;;13.23;7.10;;;;;;;16.78;93.71;101286.06;6263720;28;20213;-74
2021/09/09 07:09:36;;;;;;;15.43;7.68;;;;;;;16.98;92.98;101280.91;6263120;28;20235;-74
2021/09/09 07:12:40;;;;;;;9.15;7.85;;;;;;;16.90;92.04;101284.06;6264168;28;20188;-74
2021/09/09 07:15:45;;;;;;;14.55;8.68;;;;;;;16.87;92.56;101279.09;6263481;28;20232;-74
2021/09/09 07:18:49;;;;;;;27.08;10.30;;;;;;;17.04;91.56;101279.94;6262370;28;20195;-74
2021/09/09 07:21:54;;;;;;;17.75;9.73;;;;;;;17.12;91.44;101265.75;6263956;28;20185;-74
2021/09/09 07:24:59;;;;;;;21.35;10.68;;;;;;;17.22;91.13;101270.59;6263808;28;20213;-74
2021/09/09 07:28:03;;;;;;;19.40;9.93;;;;;;;17.27;90.25;101260.47;6263347;28;20192;-74
2021/09/09 07:31:08;;;;;;;13.98;8.45;;;;;;;17.28;90.39;101264.91;6263279;28;20252;-74
2021/09/09 07:34:12;;;;;;;8.57;7.78;;;;;;;17.33;89.78;101256.69;6263446;28;20193;-74
2021/09/09 07:37:18;;;;;;;10.10;7.45;;;;;;;17.37;89.47;101255.13;6262045;28;20358;-74
2021/09/09 07:40:25;;;;;;;12.02;8.35;;;;;;;17.33;90.33;101256.69;6262016;28;20385;-74
2021/09/09 07:43:31;;;;;;;15.10;8.57;;;;;;;17.31;90.31;101253.38;6261956;28;20480;-74
2021/09/09 07:46:35;;;;;;;10.88;7.53;;;;;;;17.34;90.66;101247.34;6261867;28;20208;-74
2021/09/09 07:49:40;;;;;;;10.00;7.70;;;;;;;17.39;90.20;101255.72;6261832;28;20491;-73
2021/09/09 07:52:45;;;;;;;11.77;8.32;;;;;;;17.43;90.80;101245.00;6263118;28;20223;-73
2021/09/09 07:55:50;;;;;;;12.25;7.13;;;;;;;17.43;89.85;101251.38;6261905;28;20242;-74
2021/09/09 07:59:09;;;;;;;9.93;7.57;;;;;;;17.51;89.77;101236.31;6262711;28;20185;-74
2021/09/09 08:02:14;;;;;;;10.38;7.50;;;;;;;17.59;89.45;101248.88;6262678;28;20208;-74
2021/09/09 08:05:19;;;;;;;11.80;7.90;;;;;;;17.62;89.30;101242.81;6263013;28;20247;-74
2021/09/09 08:08:25;;;;;;;9.20;6.85;;;;;;;17.67;89.02;101237.41;6261452;28;20503;-75
2021/09/09 08:11:29;;;;;;;9.55;7.15;;;;;;;17.65;89.39;101242.31;6262515;28;20184;-74
2021/09/09 08:14:34;;;;;;;8.32;7.20;;;;;;;17.69;88.89;101246.25;6262942;28;20249;-74
2021/09/09 08:17:39;;;;;;;7.47;6.80;;;;;;;17.71;89.08;101246.84;6262503;28;20201;-75
2021/09/09 08:20:43;;;;;;;13.63;6.70;;;;;;;17.74;89.20;101235.31;6262528;28;20193;-74
2021/09/09 08:23:49;;;;;;;9.85;7.18;;;;;;;17.82;88.80;101243.16;6262322;28;20223;-75
2021/09/09 08:26:53;;;;;;;7.32;6.47;;;;;;;17.87;88.03;101240.44;6261254;28;20219;-75
2021/09/09 08:29:58;;;;;;;7.88;6.20;;;;;;;17.91;87.92;101241.59;6261589;28;20473;-75
2021/09/09 08:33:02;;;;;;;11.15;6.57;;;;;;;18.02;87.27;101240.66;6266525;28;20455;-74
2021/09/09 08:36:08;;;;;;;8.52;6.50;;;;;;;17.99;87.71;101243.91;6267369;28;20199;-75
2021/09/09 08:39:14;;;;;;;8.57;6.65;;;;;;;18.04;86.88;101236.53;6266226;28;20202;-74
2021/09/09 08:42:19;;;;;;;7.57;6.88;;;;;;;18.11;86.46;101230.81;6266174;28;20473;-73
2021/09/09 08:45:24;;;;;;;7.95;6.55;;;;;;;18.09;86.61;101239.38;6266972;28;20213;-75
2021/09/09 08:48:29;;;;;;;7.25;5.75;;;;;;;18.22;85.21;101235.38;6267200;28;20185;-75
2021/09/09 08:51:34;;;;;;;6.30;5.68;;;;;;;18.27;85.04;101235.44;6266358;28;20188;-75
2021/09/09 08:54:58;;;;;;;6.82;5.70;;;;;;;18.23;84.67;101233.47;6266209;28;20485;-75
2021/09/09 08:58:05;;;;;;;6.22;5.72;;;;;;;18.29;84.74;101233.25;6266997;28;20189;-75
2021/09/09 09:01:12;;;;;;;5.93;5.43;;;;;;;18.33;85.07;101234.41;6266203;28;20343;-75
2021/09/09 09:04:17;;;;;;;7.63;5.22;;;;;;;18.40;84.39;101229.53;6265651;28;20514;-75
2021/09/09 09:07:31;;;;;;;6.18;5.63;;;;;;;18.41;85.25;101235.88;6265746;28;20215;-75
2021/09/09 09:10:37;;;;;;;5.97;5.35;;;;;;;18.44;84.30;101230.66;6266858;28;20185;-75
2021/09/09 09:13:42;;;;;;;5.18;4.88;;;;;;;18.56;83.55;101234.16;6265908;28;20236;-75
2021/09/09 09:16:48;;;;;;;12.93;5.63;;;;;;;18.56;84.15;101220.34;6266299;28;20185;-75
2021/09/09 09:19:52;;;;;;;9.73;5.30;;;;;;;18.68;82.68;101212.72;6266061;28;20255;-75
2021/09/09 09:23:08;;;;;;;5.50;4.70;;;;;;;18.70;83.02;101217.97;6267007;28;20264;-75
2021/09/09 09:26:16;;;;;;;5.28;4.70;;;;;;;18.69;82.87;101211.59;6266043;28;20213;-75
2021/09/09 09:29:24;;;;;;;5.97;4.82;;;;;;;18.79;81.67;101210.06;6265099;28;20480;-75
2021/09/09 09:32:45;;;;;;;5.97;4.68;;;;;;;18.81;81.58;101207.84;6266344;28;20224;-75
2021/09/09 09:35:50;;;;;;;7.03;4.40;;;;;;;18.93;80.97;101205.75;6264963;28;20524;-75
2021/09/09 09:38:55;;;;;;;4.65;4.38;;;;;;;18.99;80.21;101204.69;6266072;28;20247;-75
2021/09/09 09:42:05;;;;;;;4.80;4.53;;;;;;;19.06;79.92;101206.13;6263890;28;20362;-74
2021/09/09 09:45:12;;;;;;;4.63;4.22;;;;;;;19.14;79.61;101196.53;6265578;28;20185;-75
2021/09/09 09:48:38;;;;;;;6.00;4.15;;;;;;;19.29;77.88;101204.94;6265754;28;20224;-74
2021/09/09 09:51:45;;;;;;;5.60;4.68;;;;;;;19.35;78.36;101209.41;6265081;28;20217;-75
2021/09/09 09:55:03;;;;;;;5.35;4.93;;;;;;;19.40;78.68;101195.66;6265642;28;20185;-75
2021/09/09 09:58:10;;;;;;;6.18;4.90;;;;;;;19.45;78.19;101220.59;6264368;28;20189;-75
2021/09/09 10:01:14;;;;;;;4.78;4.25;;;;;;;19.52;78.35;101210.09;6264416;28;20359;-75
2021/09/09 10:04:20;;;;;;;4.43;4.13;;;;;;;19.58;78.31;101202.66;6265536;28;20251;-75
2021/09/09 10:07:25;;;;;;;4.22;3.95;;;;;;;19.68;77.09;101206.34;6265402;28;20259;-74
2021/09/09 10:10:31;;;;;;;4.22;4.10;;;;;;;19.74;76.97;101202.50;6265160;28;20252;-74
2021/09/09 10:13:38;;;;;;;5.22;4.45;;;;;;;19.80;76.56;101183.97;6264958;28;20240;-75
2021/09/09 10:16:43;;;;;;;4.57;4.18;;;;;;;19.85;76.68;101193.13;6264562;28;20188;-74
2021/09/09 10:19:49;;;;;;;6.25;4.70;;;;;;;19.89;76.05;101188.72;6263845;28;20495;-74
2021/09/09 10:23:01;;;;;;;4.78;4.38;;;;;;;19.89;76.65;101204.50;6263759;28;20472;-75
2021/09/09 10:26:06;;;;;;;8.30;4.30;;;;;;;19.97;76.35;101191.00;6265142;28;20185;-75
2021/09/09 10:29:49;;;;;;;5.15;4.75;;;;;;;20.02;76.20;101187.41;6263888;28;20248;-76
2021/09/09 10:32:57;;;;;;;5.38;4.95;;;;;;;20.14;74.77;101189.91;6189324;28;20266;-75
2021/09/09 10:36:39;;;;;;;5.13;4.75;;;;;;;20.16;75.01;101198.81;6188304;28;20499;-76
2021/09/09 10:39:56;;;;;;;5.00;4.57;;;;;;;20.17;77.34;101192.16;6184786;28;20301;-76
2021/09/09 10:43:02;;;;;;;6.35;4.53;;;;;;;20.20;76.06;101195.22;6188056;28;20203;-75
2021/09/09 10:46:12;;;;;;;4.93;4.60;;;;;;;20.30;74.74;101188.91;6189132;28;20187;-76
2021/09/09 10:49:19;;;;;;;5.60;5.20;;;;;;;20.30;74.42;101184.19;6187822;28;20495;-76
2021/09/09 10:52:24;;;;;;;5.63;5.13;;;;;;;20.41;74.13;101180.34;6188620;28;20296;-75
2021/09/09 10:55:30;;;;;;;5.10;4.60;;;;;;;20.50;73.03;101184.25;6186997;28;20187;-75
2021/09/09 10:58:36;;;;;;;6.43;5.03;;;;;;;20.51;73.64;101171.22;6188006;28;20191;-75
2021/09/09 11:01:45;;;;;;;5.68;5.22;;;;;;;20.56;74.79;101176.78;6187377;28;20381;-75
2021/09/09 11:04:49;;;;;;;5.45;5.05;;;;;;;20.60;74.06;101180.66;6258061;28;20223;-74
2021/09/09 11:07:53;;;;;;;9.07;4.50;;;;;;;20.69;72.62;101181.78;6262213;28;20559;-75
2021/09/09 11:10:58;;;;;;;6.00;5.20;;;;;;;20.74;71.77;101173.47;6263790;28;20223;-75
2021/09/09 11:14:04;;;;;;;11.48;7.53;;;;;;;20.79;72.60;101169.88;6263433;28;20235;-74
2021/09/09 11:17:16;;;;;;;5.40;4.88;;;;;;;20.89;71.00;101170.69;6264014;28;20220;-74
2021/09/09 11:20:31;;;;;;;5.05;4.60;;;;;;;20.99;70.85;101170.69;6263835;28;20248;-75
2021/09/09 11:23:37;;;;;;;4.90;4.53;;;;;;;20.96;70.92;101176.78;6263891;28;20195;-74
2021/09/09 11:26:43;;;;;;;4.88;4.45;;;;;;;21.03;69.57;101177.34;6263069;28;20248;-74
2021/09/09 11:29:56;;;;;;;4.95;4.43;;;;;;;21.13;69.68;101171.81;6262507;28;20276;-75
2021/09/09 11:33:05;;;;;;;4.07;3.83;;;;;;;21.15;69.98;101172.41;6261952;28;20192;-75
2021/09/09 11:36:11;;;;;;;5.25;4.75;;;;;;;21.17;69.41;101172.94;6262855;28;20185;-74
2021/09/09 11:39:19;;;;;;;4.88;4.47;;;;;;;21.23;68.80;101164.59;6262893;28;20189;-74
2021/09/09 11:42:24;;;;;;;6.32;4.35;;;;;;;21.26;69.10;101169.59;6262768;28;20193;-75
2021/09/09 11:45:28;;;;;;;8.35;5.13;;;;;;;21.33;68.78;101172.91;6262833;28;20189;-75
2021/09/09 11:48:51;;;;;;;5.20;4.72;;;;;;;21.34;68.44;101155.16;6261947;28;20247;-74
2021/09/09 11:52:11;;;;;;;5.63;4.93;;;;;;;21.34;67.56;101171.81;6262395;28;20193;-75
2021/09/09 11:55:19;;;;;;;5.60;5.10;;;;;;;21.36;68.27;101169.59;6261652;28;20185;-76
2021/09/09 11:58:37;;;;;;;5.88;5.30;;;;;;;21.38;68.40;101172.91;6261488;28;20189;-75
2021/09/09 12:01:42;;;;;;;10.65;5.30;;;;;;;21.40;67.33;101154.03;6262130;28;20185;-75
2021/09/09 12:04:48;;;;;;;5.78;4.95;;;;;;;21.37;69.26;101154.56;6262259;28;20185;-75
2021/09/09 12:07:53;;;;;;;6.40;5.40;;;;;;;21.42;68.75;101143.47;6263224;28;20231;-74
2021/09/09 12:11:10;;;;;;;5.38;5.00;;;;;;;21.41;68.50;101150.16;6262168;28;20185;-75
2021/09/09 12:14:35;;;;;;;6.07;5.40;;;;;;;21.46;67.82;101141.81;6261894;28;20228;-75
2021/09/09 12:17:43;;;;;;;5.63;5.20;;;;;;;21.52;67.76;101140.69;6261965;28;20195;-75
2021/09/09 12:20:49;;;;;;;6.72;5.32;;;;;;;21.46;68.62;101147.34;6262839;28;20192;-75
2021/09/09 12:23:58;;;;;;;8.32;5.68;;;;;;;21.55;67.23;101143.72;6261946;28;20300;-74
2021/09/09 12:27:04;;;;;;;5.43;5.20;;;;;;;21.64;66.48;101133.69;6262680;28;20247;-75
2021/09/09 12:30:09;;;;;;;5.93;5.38;;;;;;;21.63;66.04;101133.97;6261686;28;20240;-75
2021/09/09 12:33:35;;;;;;;5.43;4.88;;;;;;;21.67;67.18;101144.22;6262530;28;20185;-74
2021/09/09 12:36:43;;;;;;;6.15;5.35;;;;;;;21.67;66.72;101143.41;6262151;28;20185;-75
2021/09/09 12:39:48;;;;;;;5.70;5.28;;;;;;;21.70;68.05;101148.38;6262290;28;20193;-76
2021/09/09 12:42:52;;;;;;;6.40;5.80;;;;;;;21.68;66.99;101150.63;6262088;28;20258;-76
2021/09/09 12:45:59;;;;;;;5.53;5.22;;;;;;;21.73;66.56;101142.25;6262527;28;20189;-76
2021/09/09 12:49:06;;;;;;;6.60;6.03;;;;;;;21.73;67.63;101136.72;6262355;28;20247;-75
2021/09/09 12:52:14;;;;;;;7.25;6.38;;;;;;;21.78;67.41;101147.78;6262503;28;20189;-75
2021/09/09 12:55:18;;;;;;;6.70;6.05;;;;;;;21.83;67.05;101147.78;6261085;28;20192;-75
2021/09/09 12:58:22;;;;;;;5.95;5.57;;;;;;;21.89;66.32;101152.22;6262267;28;20242;-76
2021/09/09 13:01:27;;;;;;;6.05;5.55;;;;;;;21.93;66.00;101147.75;6261074;28;20208;-76
2021/09/09 13:04:32;;;;;;;10.52;5.70;;;;;;;21.97;65.80;101148.88;6261009;28;20382;-76
2021/09/09 13:07:38;;;;;;;6.18;5.57;;;;;;;21.98;65.55;101150.50;6262321;28;20192;-76
2021/09/09 13:10:43;;;;;;;6.55;6.05;;;;;;;21.99;65.75;101141.06;6262137;28;20200;-76
2021/09/09 13:13:47;;;;;;;9.15;6.53;;;;;;;22.00;66.85;101153.88;6261146;28;20260;-75
2021/09/09 13:16:55;;;;;;;9.88;6.15;;;;;;;22.06;66.62;101151.91;6261777;28;20191;-74
2021/09/09 13:19:59;;;;;;;9.60;6.35;;;;;;;22.06;67.79;101147.13;6266402;28;20243;-73
2021/09/09 13:23:06;;;;;;;6.72;6.25;;;;;;;22.02;67.92;101146.06;6265692;28;20196;-73
2021/09/09 13:26:11;;;;;;;9.55;6.55;;;;;;;21.98;67.70;101133.84;6265085;28;20268;-74
2021/09/09 13:29:15;;;;;;;6.70;6.10;;;;;;;22.09;67.44;101145.75;6265042;28;20523;-75
2021/09/09 13:32:19;;;;;;;7.25;6.43;;;;;;;22.12;67.87;101146.00;6265060;28;20383;-74
2021/09/09 13:35:24;;;;;;;7.28;6.60;;;;;;;22.09;68.10;101141.03;6264673;28;20262;-75
2021/09/09 13:38:30;;;;;;;7.30;6.50;;;;;;;22.11;68.40;101141.56;6265913;28;20189;-75
2021/09/09 13:41:35;;;;;;;8.65;6.80;;;;;;;22.12;68.56;101139.63;6264506;28;20500;-74
2021/09/09 13:44:39;;;;;;;7.35;6.78;;;;;;;22.07;69.34;101143.25;6265310;28;20185;-75
2021/09/09 13:47:56;;;;;;;6.78;6.03;;;;;;;21.99;69.40;101143.84;6264492;28;20502;-76
2021/09/09 13:51:00;;;;;;;7.90;6.68;;;;;;;22.03;69.21;101141.34;6265126;28;20278;-75
2021/09/09 13:54:06;;;;;;;7.28;6.68;;;;;;;21.97;70.21;101148.88;6265671;28;20191;-74
2021/09/09 13:57:13;;;;;;;8.73;6.85;;;;;;;22.00;69.81;101148.31;6264285;28;20570;-74
2021/09/09 14:00:30;;;;;;;6.88;6.32;;;;;;;22.01;70.15;101138.84;6264464;28;20220;-74
2021/09/09 14:03:47;;;;;;;7.60;7.00;;;;;;;21.97;69.94;101143.31;6263937;28;20203;-75
2021/09/09 14:06:51;;;;;;;9.95;6.93;;;;;;;22.04;69.66;101149.38;6264806;28;20255;-74
2021/09/09 14:09:57;;;;;;;7.03;6.38;;;;;;;21.84;70.24;101149.44;6264832;28;20276;-73
2021/09/09 14:13:04;;;;;;;7.70;7.00;;;;;;;21.90;70.18;101142.81;6263762;28;20402;-73
2021/09/09 14:16:10;;;;;;;7.63;6.95;;;;;;;21.86;69.70;101152.78;6263511;28;20282;-74
2021/09/09 14:19:14;;;;;;;7.07;6.40;;;;;;;21.97;68.97;101146.09;6264426;28;20211;-74
2021/09/09 14:22:19;;;;;;;7.53;6.80;;;;;;;22.00;69.41;101147.47;6264039;28;20231;-74
2021/09/09 14:25:26;;;;;;;6.80;6.18;;;;;;;21.97;69.24;101136.91;6264496;28;20223;-74
2021/09/09 14:28:30;;;;;;;7.63;6.90;;;;;;;21.99;69.47;101152.19;6264267;28;20216;-75